Time;durP1;ratioP1;P1;durP2;ratioP2;P2;SDS_P1;SDS_P2;PMS_P1;PMS_P2;Temp;Humidity;BMP_temperature;BMP_pressure;BME280_temperature;BME280_humidity;BME280_pressure;Samples;Min_cycle;Max_cycle;Signal;HPM_P1;HPM_P2
2023/05/02 00:00:16;;;;;;;6.83;5.90;;;;;;;8.00;100.00;98847.31;4922456;29;20233;-65
2023/05/02 00:02:42;;;;;;;7.80;5.93;;;;;;;8.11;100.00;98844.63;4927308;29;20312;-65
2023/05/02 00:05:09;;;;;;;8.27;5.60;;;;;;;8.09;100.00;98841.34;4927997;29;20225;-65
2023/05/02 00:07:36;;;;;;;9.03;6.00;;;;;;;8.06;100.00;98843.34;4921432;29;20253;-66
2023/05/02 00:10:03;;;;;;;8.23;5.43;;;;;;;8.01;100.00;98846.34;4908838;29;20305;-65
2023/05/02 00:12:29;;;;;;;7.67;6.07;;;;;;;8.02;100.00;98847.16;4905619;29;20265;-65
2023/05/02 00:14:56;;;;;;;6.30;5.10;;;;;;;8.01;100.00;98846.34;4910667;29;20770;-64
2023/05/02 00:17:49;;;;;;;6.57;5.57;;;;;;;7.97;100.00;98837.97;4925303;29;20345;-65
2023/05/02 00:20:15;;;;;;;9.67;6.30;;;;;;;8.02;100.00;98839.38;4925401;29;20220;-65
2023/05/02 00:22:42;;;;;;;6.23;5.13;;;;;;;7.96;100.00;98835.53;4927621;29;20249;-65
2023/05/02 00:25:14;;;;;;;9.30;5.37;;;;;;;7.91;100.00;98837.69;4911978;29;20261;-65
2023/05/02 00:27:41;;;;;;;7.43;6.33;;;;;;;7.85;100.00;98833.84;4906716;29;20327;-65
2023/05/02 00:30:09;;;;;;;8.27;5.97;;;;;;;7.83;100.00;98846.94;4903731;29;20234;-65
2023/05/02 00:32:35;;;;;;;9.97;5.83;;;;;;;7.76;100.00;98838.00;4920100;29;20885;-65
2023/05/02 00:35:04;;;;;;;8.03;5.97;;;;;;;7.67;100.00;98844.81;4904450;29;20244;-65
2023/05/02 00:37:31;;;;;;;11.83;5.70;;;;;;;7.66;100.00;98837.13;4900196;29;20234;-65
2023/05/02 00:39:58;;;;;;;8.23;6.03;;;;;;;7.59;100.00;98838.56;4905688;29;20243;-65
2023/05/02 00:42:30;;;;;;;8.47;5.73;;;;;;;7.53;100.00;98835.53;4924961;29;21368;-66
2023/05/02 00:44:57;;;;;;;8.97;5.97;;;;;;;7.46;100.00;98842.16;4909855;29;20235;-64
2023/05/02 00:47:29;;;;;;;11.83;6.13;;;;;;;7.41;100.00;98838.31;4891764;29;20230;-65
2023/05/02 00:49:56;;;;;;;11.83;6.37;;;;;;;7.45;100.00;98826.72;4909106;29;20301;-65
2023/05/02 00:52:49;;;;;;;8.00;6.00;;;;;;;7.54;100.00;98834.56;4919694;29;20243;-65
2023/05/02 00:55:15;;;;;;;6.40;5.67;;;;;;;7.48;100.00;98835.06;4907763;29;20230;-65
2023/05/02 00:57:42;;;;;;;7.50;5.93;;;;;;;7.38;100.00;98834.22;4910557;29;20283;-65
2023/05/02 01:00:11;;;;;;;10.70;6.50;;;;;;;7.30;100.00;98831.41;4891775;29;20234;-65
2023/05/02 01:02:43;;;;;;;9.40;6.33;;;;;;;7.35;100.00;98844.84;4925298;29;20240;-65
2023/05/02 01:05:15;;;;;;;12.13;6.60;;;;;;;7.34;100.00;98846.59;4925171;29;20327;-64
2023/05/02 01:08:03;;;;;;;11.90;6.20;;;;;;;7.22;100.00;98843.25;4927667;29;20291;-64
2023/05/02 01:10:41;;;;;;;10.20;6.37;;;;;;;7.17;100.00;98842.78;4897910;29;22962;-65
2023/05/02 01:13:12;;;;;;;9.30;6.90;;;;;;;7.10;100.00;98846.81;4906275;29;20317;-65
2023/05/02 01:15:40;;;;;;;9.63;7.07;;;;;;;7.07;100.00;98849.66;4896917;29;20762;-65
2023/05/02 01:18:09;;;;;;;8.80;6.87;;;;;;;7.11;100.00;98853.66;4923694;29;20295;-65
2023/05/02 01:20:40;;;;;;;9.57;5.83;;;;;;;7.06;100.00;98853.22;4897516;29;21049;-65
2023/05/02 01:23:17;;;;;;;6.97;6.27;;;;;;;7.05;100.00;98860.16;4907378;29;20621;-64
2023/05/02 01:25:55;;;;;;;7.07;6.00;;;;;;;7.09;100.00;98856.38;4892605;29;20229;-64
2023/05/02 01:28:38;;;;;;;8.60;6.27;;;;;;;7.06;100.00;98858.41;4917491;29;20220;-65
2023/05/02 01:31:07;;;;;;;9.50;7.65;;;;;;;6.99;100.00;98860.63;4909542;29;20471;-65
2023/05/02 01:33:35;;;;;;;10.80;7.50;;;;;;;7.02;100.00;98851.81;4923065;29;20710;-64
2023/05/02 01:36:03;;;;;;;11.37;6.50;;;;;;;7.04;100.00;98849.91;4904470;29;20323;-64
2023/05/02 01:38:32;;;;;;;9.77;6.23;;;;;;;7.00;100.00;98853.69;4924538;29;20254;-64
2023/05/02 01:41:02;;;;;;;9.00;6.60;;;;;;;6.92;100.00;98854.28;4919478;29;20233;-64
2023/05/02 01:43:31;;;;;;;8.43;6.10;;;;;;;6.94;100.00;98849.81;4924486;29;20241;-64
2023/05/02 01:46:00;;;;;;;8.27;6.80;;;;;;;6.92;100.00;98849.09;4903406;29;20228;-64
2023/05/02 01:48:28;;;;;;;10.57;7.07;;;;;;;6.92;100.00;98849.94;4907410;29;20319;-64
2023/05/02 01:50:57;;;;;;;10.87;7.13;;;;;;;6.89;100.00;98863.16;4904530;29;20242;-64
2023/05/02 01:53:25;;;;;;;8.07;6.37;;;;;;;6.87;100.00;98862.44;4888518;29;20228;-64
2023/05/02 01:55:54;;;;;;;7.93;6.93;;;;;;;6.80;100.00;98863.88;4914213;29;20227;-64
2023/05/02 01:58:22;;;;;;;12.37;7.20;;;;;;;6.77;100.00;98864.97;4900748;29;20222;-64
2023/05/02 02:00:50;;;;;;;9.73;7.47;;;;;;;6.75;100.00;98871.19;4927233;29;20235;-64
2023/05/02 02:03:18;;;;;;;10.07;6.40;;;;;;;6.75;100.00;98871.19;4924256;29;20243;-64
2023/05/02 02:05:49;;;;;;;13.50;7.00;;;;;;;6.77;100.00;98874.50;4927338;29;20228;-64
2023/05/02 02:08:16;;;;;;;9.80;6.97;;;;;;;6.70;100.00;98881.94;4905486;29;20251;-64
2023/05/02 02:10:50;;;;;;;12.93;7.47;;;;;;;6.69;100.00;98884.66;4902113;29;20233;-64
2023/05/02 02:13:18;;;;;;;12.30;7.30;;;;;;;6.70;100.00;98881.94;4896572;29;20327;-64
2023/05/02 02:15:47;;;;;;;8.57;6.67;;;;;;;6.69;100.00;98890.66;4912007;29;20229;-64
2023/05/02 02:18:20;;;;;;;13.23;7.33;;;;;;;6.81;100.00;98904.44;4896970;29;20674;-64
2023/05/02 02:20:50;;;;;;;8.80;6.90;;;;;;;6.79;100.00;98901.97;4899024;29;20584;-64
2023/05/02 02:23:19;;;;;;;10.03;7.33;;;;;;;6.77;100.00;98910.81;4924421;29;20241;-64
2023/05/02 02:25:46;;;;;;;11.90;6.80;;;;;;;6.76;100.00;98909.16;4902546;29;20246;-64
2023/05/02 02:28:15;;;;;;;11.87;7.00;;;;;;;6.75;100.00;98916.13;4899212;29;20233;-64
2023/05/02 02:30:42;;;;;;;9.80;6.87;;;;;;;6.77;100.00;98922.03;4911153;29;20295;-64
2023/05/02 02:33:08;;;;;;;9.57;7.53;;;;;;;6.80;100.00;98923.56;4929713;29;20247;-64
2023/05/02 02:35:40;;;;;;;8.93;7.50;;;;;;;6.77;100.00;98916.84;4909181;29;20235;-64
2023/05/02 02:38:21;;;;;;;10.37;6.23;;;;;;;6.84;100.00;98914.59;4910171;29;20254;-64
2023/05/02 02:40:54;;;;;;;9.67;6.80;;;;;;;6.83;100.00;98912.13;4928265;29;20326;-64
2023/05/02 02:43:29;;;;;;;11.83;7.43;;;;;;;6.79;100.00;98911.53;4898631;29;20251;-64
2023/05/02 02:46:11;;;;;;;10.37;7.53;;;;;;;6.84;100.00;98921.56;4899930;29;20236;-64
2023/05/02 02:48:48;;;;;;;11.23;7.93;;;;;;;6.79;100.00;98916.72;4900564;29;20625;-64
2023/05/02 02:51:25;;;;;;;10.87;7.17;;;;;;;6.79;100.00;98914.13;4908917;29;20749;-64
2023/05/02 02:54:01;;;;;;;9.67;7.50;;;;;;;6.76;100.00;98914.34;4910156;29;20231;-64
2023/05/02 02:56:32;;;;;;;14.23;7.10;;;;;;;6.67;100.00;98917.66;4907479;29;20247;-64
2023/05/02 02:59:05;;;;;;;10.93;7.60;;;;;;;6.74;100.00;98917.09;4909938;29;20240;-64
2023/05/02 03:01:32;;;;;;;10.30;8.30;;;;;;;6.72;100.00;98920.72;4910328;29;20311;-64
2023/05/02 03:04:03;;;;;;;13.67;7.77;;;;;;;6.69;100.00;98927.00;4903178;29;20240;-64
2023/05/02 03:06:30;;;;;;;12.93;8.13;;;;;;;6.66;100.00;98927.22;4907893;29;20245;-64
2023/05/02 03:08:58;;;;;;;13.73;7.90;;;;;;;6.76;100.00;98941.13;4905206;29;20216;-64
2023/05/02 03:11:29;;;;;;;11.50;7.67;;;;;;;6.83;100.00;98946.66;4917471;29;20626;-64
2023/05/02 03:13:56;;;;;;;12.33;8.00;;;;;;;6.87;100.00;98947.28;4904426;29;20251;-64
2023/05/02 03:16:36;;;;;;;12.83;8.27;;;;;;;6.93;100.00;98955.38;4918897;29;20364;-64
2023/05/02 03:19:06;;;;;;;13.07;8.50;;;;;;;7.04;100.00;98961.53;4896677;29;20232;-64
2023/05/02 03:21:34;;;;;;;12.77;8.33;;;;;;;7.15;100.00;98960.66;4900626;29;20232;-64
2023/05/02 03:24:08;;;;;;;13.13;9.00;;;;;;;7.23;100.00;98963.50;4902963;29;21621;-65
2023/05/02 03:26:35;;;;;;;12.50;8.43;;;;;;;7.32;100.00;98975.75;4897989;29;20286;-64
2023/05/02 03:29:02;;;;;;;11.93;7.60;;;;;;;7.51;100.00;98969.09;4912054;29;20239;-64
2023/05/02 03:31:34;;;;;;;11.63;7.63;;;;;;;7.66;100.00;98960.06;5182928;23;20241;-65
2023/05/02 03:34:01;;;;;;;11.40;7.37;;;;;;;7.80;100.00;98968.53;4903837;29;20939;-65
2023/05/02 03:36:27;;;;;;;11.73;7.80;;;;;;;7.89;100.00;98978.19;4897229;29;20593;-65
2023/05/02 03:38:55;;;;;;;11.77;8.37;;;;;;;7.94;100.00;98980.38;4898447;29;20721;-64
2023/05/02 03:41:23;;;;;;;12.40;7.80;;;;;;;7.98;100.00;98974.00;4893918;29;20264;-64
2023/05/02 03:43:55;;;;;;;9.70;7.47;;;;;;;8.03;100.00;98982.25;4875334;29;20568;-64
2023/05/02 03:46:24;;;;;;;12.03;8.27;;;;;;;8.09;100.00;98976.53;4887741;29;20303;-64
2023/05/02 03:48:51;;;;;;;11.83;7.57;;;;;;;8.15;100.00;98984.78;4885234;29;20593;-64
2023/05/02 03:51:18;;;;;;;10.27;7.87;;;;;;;8.19;100.00;98980.97;4899162;29;20715;-64
2023/05/02 03:53:49;;;;;;;11.40;7.77;;;;;;;8.17;100.00;98978.50;4899288;29;20238;-64
2023/05/02 03:56:18;;;;;;;11.57;7.80;;;;;;;8.17;100.00;98980.28;4879549;29;20242;-64
2023/05/02 03:58:50;;;;;;;8.70;6.70;;;;;;;8.13;100.00;98972.72;4884749;29;20574;-64
2023/05/02 04:01:22;;;;;;;12.70;7.77;;;;;;;8.02;100.00;98970.19;4871351;29;20248;-64
2023/05/02 04:03:52;;;;;;;8.80;6.87;;;;;;;7.92;100.00;98961.50;4875328;29;20847;-64
2023/05/02 04:06:21;;;;;;;9.33;7.03;;;;;;;7.84;100.00;98949.13;4895927;29;20243;-64
2023/05/02 04:08:54;;;;;;;10.83;7.20;;;;;;;7.80;100.00;98945.13;4901002;29;20221;-64
2023/05/02 04:11:21;;;;;;;10.97;7.13;;;;;;;7.70;100.00;98945.03;4895032;29;20267;-65
2023/05/02 04:13:49;;;;;;;9.60;7.23;;;;;;;7.57;100.00;98944.38;4880613;29;20302;-65
2023/05/02 04:16:17;;;;;;;10.53;7.00;;;;;;;7.44;100.00;98949.75;4878131;29;20257;-65
2023/05/02 04:18:43;;;;;;;12.10;8.50;;;;;;;7.38;100.00;98951.06;4896768;29;20233;-64
2023/05/02 04:21:11;;;;;;;13.53;8.37;;;;;;;7.30;100.00;98961.25;4870922;29;20253;-64
2023/05/02 04:23:39;;;;;;;11.13;8.33;;;;;;;7.25;100.00;98969.38;4875613;29;20247;-64
2023/05/02 04:26:06;;;;;;;19.67;8.87;;;;;;;7.21;100.00;98974.00;4865860;29;20249;-64
2023/05/02 04:28:40;;;;;;;11.17;7.90;;;;;;;7.28;100.00;98982.13;4885352;29;20234;-64
2023/05/02 04:31:10;;;;;;;10.83;8.00;;;;;;;7.24;100.00;98988.50;4899633;29;20321;-64
2023/05/02 04:33:38;;;;;;;12.87;8.00;;;;;;;7.26;100.00;98989.22;4880790;29;20280;-65
2023/05/02 04:36:06;;;;;;;11.97;7.27;;;;;;;7.32;100.00;98998.31;4872096;29;20300;-64
2023/05/02 04:38:34;;;;;;;10.87;8.43;;;;;;;7.35;100.00;99009.25;4894248;29;20257;-64
2023/05/02 04:41:01;;;;;;;11.57;8.27;;;;;;;7.51;100.00;99021.84;4869084;29;20237;-64
2023/05/02 04:43:38;;;;;;;14.63;8.53;;;;;;;7.64;100.00;99036.47;4892011;29;20237;-64
2023/05/02 04:46:05;;;;;;;13.70;9.73;;;;;;;7.82;100.00;99045.41;4892279;29;20233;-64
2023/05/02 04:48:40;;;;;;;16.43;10.60;;;;;;;8.03;100.00;99044.63;4889410;29;20316;-64
2023/05/02 04:51:07;;;;;;;20.17;12.43;;;;;;;8.16;100.00;99052.25;4878039;29;20245;-64
2023/05/02 04:53:33;;;;;;;14.70;12.57;;;;;;;8.21;100.00;99052.69;4887328;29;20596;-64
2023/05/02 04:56:00;;;;;;;18.20;11.50;;;;;;;8.21;100.00;99055.31;4874296;29;20241;-64
2023/05/02 04:58:27;;;;;;;19.43;12.70;;;;;;;8.27;100.00;99061.78;4869560;29;20289;-64
2023/05/02 05:01:00;;;;;;;17.83;12.57;;;;;;;8.27;100.00;99060.00;4877195;29;20736;-65
2023/05/02 05:03:28;;;;;;;15.83;11.40;;;;;;;8.27;100.00;99067.00;4891933;29;20240;-65
2023/05/02 05:05:57;;;;;;;15.73;11.00;;;;;;;8.27;100.00;99072.19;4890287;29;20233;-65
2023/05/02 05:08:24;;;;;;;18.63;10.67;;;;;;;8.30;100.00;99068.50;4893760;29;20239;-64
2023/05/02 05:10:51;;;;;;;13.40;11.20;;;;;;;8.30;100.00;99066.75;4881258;29;20239;-64
2023/05/02 05:13:19;;;;;;;14.20;10.37;;;;;;;8.30;100.00;99071.94;4894867;29;20598;-64
2023/05/02 05:15:48;;;;;;;13.23;10.10;;;;;;;8.29;100.00;99075.50;4879223;29;20240;-65
2023/05/02 05:18:16;;;;;;;13.80;10.20;;;;;;;8.30;100.00;99090.16;4874462;29;20244;-65
2023/05/02 05:20:43;;;;;;;15.30;10.37;;;;;;;8.32;100.00;99087.41;4883841;29;20392;-65
2023/05/02 05:23:12;;;;;;;11.50;8.90;;;;;;;8.34;100.00;99090.72;4875084;29;20236;-65
2023/05/02 05:25:39;;;;;;;12.93;9.00;;;;;;;8.42;100.00;99096.13;4891744;29;20703;-65
2023/05/02 05:28:06;;;;;;;11.43;8.50;;;;;;;8.42;100.00;99096.13;4878895;29;20239;-65
2023/05/02 05:30:37;;;;;;;13.80;9.33;;;;;;;8.48;100.00;99100.00;4867754;29;21119;-65
2023/05/02 05:33:07;;;;;;;13.93;9.63;;;;;;;8.55;100.00;99098.56;4877977;29;20239;-65
2023/05/02 05:35:33;;;;;;;12.20;9.07;;;;;;;8.64;100.00;99107.41;4893232;29;20241;-65
2023/05/02 05:38:01;;;;;;;10.03;8.27;;;;;;;8.75;100.00;99112.56;4893572;29;20279;-64
2023/05/02 05:40:32;;;;;;;14.67;7.80;;;;;;;8.82;100.00;99110.25;4884709;29;20327;-64
2023/05/02 05:42:59;;;;;;;11.33;8.37;;;;;;;8.91;100.00;99122.50;4894753;29;20331;-64
2023/05/02 05:45:31;;;;;;;9.80;7.37;;;;;;;9.05;100.00;99123.13;4895740;29;20315;-64
2023/05/02 05:47:57;;;;;;;9.80;7.40;;;;;;;9.17;100.00;99124.72;4896460;29;20232;-64
2023/05/02 05:50:26;;;;;;;9.53;7.53;;;;;;;9.26;100.00;99129.16;4885944;29;20262;-64
2023/05/02 05:52:53;;;;;;;7.60;6.57;;;;;;;9.36;100.00;99125.75;4892010;29;20328;-64
2023/05/02 05:55:20;;;;;;;10.60;7.80;;;;;;;9.50;100.00;99121.97;4889795;29;20246;-64
2023/05/02 05:57:48;;;;;;;11.63;8.87;;;;;;;9.60;100.00;99126.25;4886190;29;20226;-64
2023/05/02 06:00:15;;;;;;;10.30;8.37;;;;;;;9.85;100.00;99128.53;4883152;29;20232;-64
2023/05/02 06:02:42;;;;;;;11.73;8.87;;;;;;;10.10;100.00;99132.41;4899174;29;20518;-63
2023/05/02 06:05:14;;;;;;;11.00;8.37;;;;;;;10.23;100.00;99116.47;4876542;29;20816;-63
2023/05/02 06:07:42;;;;;;;11.67;7.50;;;;;;;10.38;100.00;99116.91;4887071;29;20249;-63
2023/05/02 06:10:10;;;;;;;8.93;7.50;;;;;;;10.44;100.00;99113.78;4883093;29;20239;-63
2023/05/02 06:12:40;;;;;;;10.67;8.53;;;;;;;10.51;100.00;99119.28;4887105;29;20236;-63
2023/05/02 06:15:10;;;;;;;12.23;9.43;;;;;;;10.50;100.00;99122.84;4880852;29;20318;-63
2023/05/02 06:17:37;;;;;;;14.67;11.40;;;;;;;10.54;100.00;99119.00;4895281;29;20238;-63
2023/05/02 06:20:04;;;;;;;14.43;11.63;;;;;;;10.73;100.00;99130.38;4883803;29;20253;-63
2023/05/02 06:22:31;;;;;;;11.90;9.30;;;;;;;10.99;100.00;99132.41;4895522;29;20254;-63
2023/05/02 06:24:57;;;;;;;11.20;8.77;;;;;;;11.16;100.00;99143.91;4885075;29;20238;-63
2023/05/02 06:27:29;;;;;;;12.00;8.57;;;;;;;11.22;100.00;99144.16;4884180;29;20291;-63
2023/05/02 06:29:56;;;;;;;10.23;9.07;;;;;;;11.30;100.00;99150.47;4885181;29;20235;-63
2023/05/02 06:32:31;;;;;;;10.30;8.60;;;;;;;11.51;100.00;99145.84;4897033;29;20263;-63
2023/05/02 06:35:05;;;;;;;10.20;8.37;;;;;;;11.65;100.00;99151.56;4900102;29;20260;-63
2023/05/02 06:37:35;;;;;;;12.40;8.30;;;;;;;11.63;100.00;99153.50;4899152;29;20666;-63
2023/05/02 06:40:01;;;;;;;11.13;8.03;;;;;;;11.72;100.00;99159.66;4900414;29;20299;-63
2023/05/02 06:42:29;;;;;;;12.07;8.80;;;;;;;11.78;100.00;99166.91;4898228;29;20242;-63
2023/05/02 06:45:00;;;;;;;10.57;8.00;;;;;;;11.93;100.00;99167.28;4901878;29;20331;-63
2023/05/02 06:47:31;;;;;;;10.03;8.03;;;;;;;12.21;99.77;99169.88;4894987;29;20243;-63
2023/05/02 06:49:58;;;;;;;11.47;8.80;;;;;;;12.35;96.97;99179.03;4903302;29;20236;-64
2023/05/02 06:52:29;;;;;;;9.87;7.70;;;;;;;12.70;95.14;99183.44;4896904;29;20253;-63
2023/05/02 06:54:56;;;;;;;11.43;8.53;;;;;;;12.76;92.90;99189.84;4899561;29;20241;-63
2023/05/02 06:57:29;;;;;;;13.30;10.37;;;;;;;12.58;92.45;99183.81;4899923;29;20704;-63
2023/05/02 06:59:56;;;;;;;13.20;9.93;;;;;;;12.69;92.32;99189.66;4901703;29;20271;-63
2023/05/02 07:02:33;;;;;;;14.63;10.17;;;;;;;12.70;91.24;99193.91;4900197;29;20258;-63
2023/05/02 07:04:59;;;;;;;14.50;10.70;;;;;;;12.70;89.52;99201.75;4900622;29;20247;-63
2023/05/02 07:07:29;;;;;;;14.27;11.20;;;;;;;12.37;91.48;99196.22;4899803;29;20237;-63
2023/05/02 07:09:56;;;;;;;15.23;11.40;;;;;;;12.30;93.10;99199.59;4899365;29;20229;-63
2023/05/02 07:12:27;;;;;;;14.97;11.50;;;;;;;12.46;91.93;99194.50;4893674;29;20239;-63
2023/05/02 07:14:54;;;;;;;13.77;11.27;;;;;;;12.61;92.54;99197.44;4882701;29;20636;-63
2023/05/02 07:17:21;;;;;;;13.60;10.87;;;;;;;12.51;90.86;99197.50;4877354;29;20773;-63
2023/05/02 07:19:49;;;;;;;16.17;11.40;;;;;;;12.58;92.31;99202.97;4881817;29;20321;-63
2023/05/02 07:22:15;;;;;;;15.53;11.13;;;;;;;12.48;92.19;99213.53;4877292;29;20292;-63
2023/05/02 07:24:42;;;;;;;16.73;12.33;;;;;;;12.62;93.33;99219.22;4882807;29;20250;-63
2023/05/02 07:27:09;;;;;;;15.93;11.53;;;;;;;12.59;92.61;99217.69;4883389;29;20234;-63
2023/05/02 07:29:36;;;;;;;15.07;11.27;;;;;;;12.49;93.85;99216.94;4896095;29;20240;-63
2023/05/02 07:32:03;;;;;;;14.07;11.57;;;;;;;12.59;94.68;99224.75;4898388;29;20248;-63
2023/05/02 07:34:30;;;;;;;18.10;11.40;;;;;;;12.63;95.32;99221.66;4896501;29;20315;-63
2023/05/02 07:36:58;;;;;;;14.73;12.93;;;;;;;12.63;94.54;99224.28;4892563;29;20234;-63
2023/05/02 07:39:25;;;;;;;15.30;11.77;;;;;;;12.77;94.18;99220.31;4894174;29;20252;-63
2023/05/02 07:41:52;;;;;;;16.57;12.10;;;;;;;13.03;91.95;99223.97;4880508;29;20233;-63
2023/05/02 07:44:19;;;;;;;15.87;11.00;;;;;;;12.95;93.31;99216.84;4860677;29;20251;-63
2023/05/02 07:46:46;;;;;;;13.90;12.20;;;;;;;13.02;90.86;99228.38;4880992;29;20290;-63
2023/05/02 07:49:12;;;;;;;16.60;12.40;;;;;;;13.11;91.18;99229.28;4878354;29;20237;-63
2023/05/02 07:51:40;;;;;;;16.73;12.60;;;;;;;13.20;89.87;99225.75;4882988;29;20237;-63
2023/05/02 07:54:16;;;;;;;15.57;12.10;;;;;;;13.28;89.72;99224.97;4879645;29;20236;-64
2023/05/02 07:56:42;;;;;;;15.43;11.70;;;;;;;13.61;87.97;99219.97;4890567;29;20239;-64
2023/05/02 07:59:10;;;;;;;13.60;11.17;;;;;;;14.11;87.17;99228.03;4872510;29;20240;-64
2023/05/02 08:01:36;;;;;;;16.53;11.10;;;;;;;14.42;85.05;99235.34;4901826;29;20249;-64
2023/05/02 08:04:04;;;;;;;13.37;11.97;;;;;;;14.45;82.37;99238.47;4894641;29;20228;-63
2023/05/02 08:06:31;;;;;;;15.73;11.60;;;;;;;14.68;81.76;99248.38;4878529;29;23452;-63
2023/05/02 08:08:58;;;;;;;14.60;10.53;;;;;;;15.05;81.03;99241.84;4899892;29;20238;-64
2023/05/02 08:11:26;;;;;;;13.17;11.77;;;;;;;14.74;80.69;99239.06;4885936;29;20229;-64
2023/05/02 08:13:52;;;;;;;13.20;10.73;;;;;;;15.25;77.87;99246.78;4883716;29;20594;-64
2023/05/02 08:16:20;;;;;;;13.70;12.00;;;;;;;15.49;78.50;99245.91;4895955;29;20230;-64
2023/05/02 08:18:46;;;;;;;23.37;19.90;;;;;;;15.56;74.88;99242.63;4888504;29;20327;-64
2023/05/02 08:21:13;;;;;;;11.60;10.10;;;;;;;15.56;73.62;99245.25;4878324;29;20713;-64
2023/05/02 08:23:41;;;;;;;15.83;10.27;;;;;;;15.71;73.16;99240.94;4884249;29;20238;-64
2023/05/02 08:26:08;;;;;;;12.17;10.30;;;;;;;15.60;74.12;99242.09;4883394;29;20232;-64
2023/05/02 08:28:38;;;;;;;11.93;10.30;;;;;;;15.38;76.76;99242.78;4891020;29;20252;-62
2023/05/02 08:31:04;;;;;;;11.80;9.35;;;;;;;15.15;72.50;99239.06;4885813;29;20954;-62
2023/05/02 08:33:31;;;;;;;12.73;10.20;;;;;;;14.88;75.28;99245.47;4878270;29;20248;-62
2023/05/02 08:35:59;;;;;;;10.83;9.73;;;;;;;15.14;77.26;99260.25;4877592;29;20259;-62
2023/05/02 08:38:25;;;;;;;15.00;9.60;;;;;;;15.13;72.60;99251.53;4879516;29;20234;-62
2023/05/02 08:40:52;;;;;;;13.30;9.80;;;;;;;15.08;75.26;99256.47;4885334;29;20242;-62
2023/05/02 08:43:19;;;;;;;14.00;10.83;;;;;;;15.00;73.48;99257.31;4866552;29;20230;-60
2023/05/02 08:45:49;;;;;;;12.57;10.63;;;;;;;15.32;75.76;99262.72;4880745;29;20231;-61
2023/05/02 08:48:17;;;;;;;13.47;11.37;;;;;;;15.27;74.58;99262.38;4858191;29;20234;-61
2023/05/02 08:50:47;;;;;;;15.73;11.37;;;;;;;15.16;72.61;99248.59;4883302;29;20235;-61
2023/05/02 08:53:14;;;;;;;20.73;15.03;;;;;;;14.93;72.25;99251.06;4886443;29;20246;-61
2023/05/02 08:55:42;;;;;;;17.13;12.43;;;;;;;15.21;72.28;99253.38;4897306;29;20323;-61
2023/05/02 08:58:09;;;;;;;15.47;12.13;;;;;;;15.20;73.59;99249.09;4901032;29;20232;-62
2023/05/02 09:00:39;;;;;;;14.50;12.07;;;;;;;15.54;72.39;99263.00;4893789;29;20237;-62
2023/05/02 09:03:21;;;;;;;18.87;12.50;;;;;;;15.47;71.79;99262.84;4902850;29;20291;-61
2023/05/02 09:05:52;;;;;;;15.50;12.00;;;;;;;15.26;72.75;99260.75;4891669;29;20229;-61
2023/05/02 09:08:22;;;;;;;14.23;11.90;;;;;;;15.32;74.20;99258.28;4885695;29;20229;-62
2023/05/02 09:10:49;;;;;;;16.70;12.90;;;;;;;15.29;73.52;99263.88;4904083;29;20240;-62
2023/05/02 09:13:31;;;;;;;17.83;14.10;;;;;;;15.53;72.74;99266.63;4898281;29;20221;-62
2023/05/02 09:15:59;;;;;;;17.93;13.23;;;;;;;15.81;71.62;99268.88;4899422;29;20245;-62
2023/05/02 09:18:30;;;;;;;18.40;13.03;;;;;;;16.08;71.43;99265.84;4897290;29;20312;-62
2023/05/02 09:20:58;;;;;;;16.80;13.43;;;;;;;16.34;71.20;99269.19;4899665;29;20251;-62
2023/05/02 09:23:36;;;;;;;16.57;13.43;;;;;;;16.58;68.47;99264.75;4895523;29;20717;-62
2023/05/02 09:26:11;;;;;;;17.07;13.60;;;;;;;16.71;66.09;99272.91;4898023;29;20228;-62
2023/05/02 09:28:39;;;;;;;18.93;13.57;;;;;;;16.61;67.75;99275.78;4897353;29;20254;-62
2023/05/02 09:31:08;;;;;;;19.93;13.63;;;;;;;16.35;66.23;99282.19;4899935;29;20287;-62
2023/05/02 09:33:36;;;;;;;16.27;13.80;;;;;;;16.25;68.58;99272.88;4892646;29;20321;-62
2023/05/02 09:36:03;;;;;;;18.90;14.17;;;;;;;16.23;68.95;99278.28;4896815;29;20247;-61
2023/05/02 09:38:29;;;;;;;21.43;15.17;;;;;;;16.20;69.20;99276.81;4891864;29;20804;-64
2023/05/02 09:40:56;;;;;;;19.63;13.77;;;;;;;16.64;66.92;99278.06;4897809;29;20636;-65
2023/05/02 09:43:23;;;;;;;18.90;13.97;;;;;;;16.43;66.29;99275.22;4896588;29;20226;-64
2023/05/02 09:45:57;;;;;;;22.50;15.53;;;;;;;16.50;66.47;99278.81;4896889;29;20272;-64
2023/05/02 09:48:24;;;;;;;21.00;16.10;;;;;;;16.34;65.19;99277.91;4891458;29;20246;-64
2023/05/02 09:50:52;;;;;;;24.57;17.10;;;;;;;15.85;67.13;99271.00;4896412;29;20236;-63
2023/05/02 09:53:19;;;;;;;21.20;15.73;;;;;;;15.99;66.03;99266.84;4894504;29;20265;-63
2023/05/02 09:55:45;;;;;;;21.87;16.73;;;;;;;16.32;65.07;99282.53;4901033;29;20726;-63
2023/05/02 09:58:21;;;;;;;22.13;16.47;;;;;;;16.33;64.79;99286.81;4900064;29;20235;-63
2023/05/02 10:00:48;;;;;;;26.53;19.07;;;;;;;15.34;66.45;99277.34;4884428;29;20246;-63
2023/05/02 10:03:17;;;;;;;26.77;17.93;;;;;;;15.83;68.68;99282.69;4879498;29;20240;-63
2023/05/02 10:05:46;;;;;;;23.97;17.73;;;;;;;15.87;69.73;99281.41;4890853;29;20323;-63
2023/05/02 10:08:16;;;;;;;23.10;17.63;;;;;;;16.38;70.04;99273.13;4897126;29;20234;-64
2023/05/02 10:10:47;;;;;;;22.27;16.37;;;;;;;16.92;67.18;99277.56;4897632;29;20257;-64
2023/05/02 10:13:19;;;;;;;23.63;16.63;;;;;;;16.60;65.47;99276.78;4886565;29;20240;-64
2023/05/02 10:15:49;;;;;;;24.20;17.80;;;;;;;16.76;63.87;99282.94;4878254;29;20232;-64
2023/05/02 10:18:24;;;;;;;23.67;16.87;;;;;;;16.51;66.37;99280.47;4875758;29;20234;-64
2023/05/02 10:20:56;;;;;;;27.20;20.13;;;;;;;16.50;67.59;99281.44;4878284;29;20298;-64
2023/05/02 10:23:27;;;;;;;26.30;18.67;;;;;;;16.50;65.71;99279.63;4886799;29;20652;-63
2023/05/02 10:25:55;;;;;;;26.63;18.03;;;;;;;16.12;66.61;99276.88;4881989;29;20608;-63
2023/05/02 10:28:21;;;;;;;24.13;19.57;;;;;;;15.75;70.01;99280.88;4878599;29;20321;-56
2023/05/02 10:30:49;;;;;;;24.80;20.33;;;;;;;15.20;70.67;99278.00;4877501;29;20452;-62
2023/05/02 10:33:17;;;;;;;22.90;17.50;;;;;;;15.55;71.70;99276.00;4885079;29;20245;-64
2023/05/02 10:35:45;;;;;;;27.87;19.20;;;;;;;15.98;70.78;99275.75;4889185;29;20238;-63
2023/05/02 10:38:13;;;;;;;25.43;19.57;;;;;;;16.18;68.72;99270.91;4895836;29;20722;-63
2023/05/02 10:40:43;;;;;;;24.90;18.90;;;;;;;16.80;68.62;99273.69;4896842;29;20770;-60
2023/05/02 10:43:15;;;;;;;26.80;19.20;;;;;;;17.04;66.80;99269.25;4895747;29;20299;-58
2023/05/02 10:45:42;;;;;;;26.60;20.27;;;;;;;17.48;63.65;99273.81;4883299;29;20240;-61
2023/05/02 10:48:19;;;;;;;28.13;20.83;;;;;;;17.17;64.36;99277.38;4878572;29;20235;-63
2023/05/02 10:50:47;;;;;;;25.87;19.53;;;;;;;16.53;62.98;99270.56;4890728;29;20735;-63
2023/05/02 10:53:39;;;;;;;26.80;19.00;;;;;;;16.33;63.67;99273.63;4880594;29;20231;-63
2023/05/02 10:56:19;;;;;;;24.50;19.30;;;;;;;16.53;62.07;99276.66;4868742;29;20755;-63
2023/05/02 10:58:48;;;;;;;28.50;18.57;;;;;;;16.62;61.83;99272.16;4896246;29;20332;-63
2023/05/02 11:01:35;;;;;;;24.57;18.47;;;;;;;16.59;62.19;99269.88;4895089;29;20314;-63
2023/05/02 11:04:03;;;;;;;26.57;17.90;;;;;;;16.06;64.78;99273.09;4884328;29;20223;-63
2023/05/02 11:06:32;;;;;;;26.73;18.90;;;;;;;16.04;65.53;99266.34;4887418;29;20242;-63
2023/05/02 11:09:33;;;;;;;29.50;18.77;;;;;;;15.28;65.54;99264.88;4903477;29;20719;-63
2023/05/02 11:12:07;;;;;;;25.30;17.60;;;;;;;15.57;65.41;99270.56;4886640;29;20317;-63
2023/05/02 11:14:49;;;;;;;22.67;17.50;;;;;;;15.72;65.22;99266.28;4879450;29;20221;-63
2023/05/02 11:17:20;;;;;;;26.80;18.83;;;;;;;15.70;64.16;99268.25;4899747;29;20232;-63
2023/05/02 11:20:24;;;;;;;26.53;18.37;;;;;;;16.16;64.24;99261.53;4900203;29;20248;-63
2023/05/02 11:22:51;;;;;;;26.87;18.63;;;;;;;16.15;60.88;99262.50;4898257;29;20268;-63
2023/05/02 11:25:32;;;;;;;21.83;16.80;;;;;;;16.27;65.67;99255.06;4897097;29;20278;-63
2023/05/02 11:28:01;;;;;;;22.83;18.37;;;;;;;16.59;61.76;99261.13;4901010;29;20233;-63
2023/05/02 11:30:42;;;;;;;25.00;18.53;;;;;;;16.48;60.50;99252.63;4879424;29;20246;-63
2023/05/02 11:33:18;;;;;;;23.10;17.93;;;;;;;16.23;59.70;99258.06;4882410;29;20249;-63